Time;durP1;ratioP1;P1;durP2;ratioP2;P2;SDS_P1;SDS_P2;PMS_P1;PMS_P2;Temp;Humidity;BMP_temperature;BMP_pressure;BME280_temperature;BME280_humidity;BME280_pressure;Samples;Min_cycle;Max_cycle;Signal;HPM_P1;HPM_P2
2021/03/24 00:01:27;;;;;;;67.20;46.63;;;5.80;91.60;;;;;;5030470;28;20034;-77
2021/03/24 00:04:13;;;;;;;63.13;45.33;;;5.80;91.80;;;;;;5020375;28;20050;-77
2021/03/24 00:06:59;;;;;;;64.55;46.53;;;5.90;92.00;;;;;;5012032;28;20045;-77
2021/03/24 00:09:44;;;;;;;64.50;46.22;;;5.90;92.10;;;;;;5015303;28;20412;-77
2021/03/24 00:12:33;;;;;;;62.85;44.67;;;5.90;92.10;;;;;;5018747;28;20449;-77
2021/03/24 00:15:19;;;;;;;60.65;43.08;;;5.90;92.00;;;;;;5008633;28;20121;-77
2021/03/24 00:18:07;;;;;;;66.03;45.67;;;5.90;92.10;;;;;;5019564;28;20144;-77
2021/03/24 00:20:53;;;;;;;68.45;44.78;;;5.90;91.90;;;;;;5033501;28;20068;-77
2021/03/24 00:23:40;;;;;;;67.82;45.15;;;5.80;91.70;;;;;;5015510;28;20069;-78
2021/03/24 00:26:26;;;;;;;59.47;41.20;;;5.80;91.70;;;;;;5025349;28;20045;-78
2021/03/24 00:29:11;;;;;;;61.88;42.75;;;5.70;91.70;;;;;;5022503;28;20045;-78
2021/03/24 00:31:57;;;;;;;62.13;43.03;;;5.60;91.70;;;;;;5029944;28;20045;-78
2021/03/24 00:34:44;;;;;;;64.28;44.90;;;5.60;91.70;;;;;;5017454;28;20050;-78
2021/03/24 00:37:30;;;;;;;65.75;43.78;;;5.50;91.70;;;;;;5044407;28;20049;-78
2021/03/24 00:40:19;;;;;;;62.22;42.30;;;5.40;91.80;;;;;;5005629;28;20048;-78
2021/03/24 00:43:06;;;;;;;65.22;43.63;;;5.30;91.80;;;;;;5023956;28;20045;-78
2021/03/24 00:45:52;;;;;;;66.78;44.22;;;5.20;92.10;;;;;;5024761;28;20041;-78
2021/03/24 00:48:38;;;;;;;61.45;43.47;;;5.20;92.20;;;;;;5032197;28;20042;-78
2021/03/24 00:51:24;;;;;;;65.80;44.88;;;5.20;92.20;;;;;;5028104;28;20045;-78
2021/03/24 00:54:10;;;;;;;62.95;42.88;;;5.20;92.20;;;;;;5019176;28;20095;-78
2021/03/24 00:56:55;;;;;;;65.75;44.25;;;5.10;92.50;;;;;;5025249;28;20480;-77
2021/03/24 00:59:41;;;;;;;63.83;42.88;;;5.10;93.00;;;;;;5020378;28;20469;-77
2021/03/24 01:02:27;;;;;;;66.25;45.15;;;5.10;93.40;;;;;;5015763;28;20038;-77
2021/03/24 01:05:15;;;;;;;66.93;47.22;;;5.10;93.50;;;;;;5017570;28;20199;-78
2021/03/24 01:08:10;;;;;;;76.88;52.00;;;5.10;93.10;;;;;;5041130;28;20666;-78
2021/03/24 01:10:56;;;;;;;;;;;5.00;93.20;;;;;;5020081;28;20056;-77
2021/03/24 01:13:42;;;;;;;74.45;48.80;;;5.00;93.80;;;;;;5016285;28;19921;-77
2021/03/24 01:16:28;;;;;;;73.25;49.38;;;4.90;93.80;;;;;;5008741;28;20049;-77
2021/03/24 01:19:14;;;;;;;76.22;51.15;;;4.90;93.50;;;;;;5021970;28;20091;-77
2021/03/24 01:21:59;;;;;;;78.38;52.83;;;4.80;93.80;;;;;;5008414;28;20080;-77
2021/03/24 01:24:47;;;;;;;88.53;56.17;;;4.80;93.90;;;;;;5013225;28;20502;-77
2021/03/24 01:27:33;;;;;;;78.93;53.85;;;4.70;93.80;;;;;;5025283;28;20045;-78
2021/03/24 01:30:22;;;;;;;86.70;56.35;;;4.60;93.90;;;;;;5021644;28;20052;-78
2021/03/24 01:33:08;;;;;;;84.07;56.30;;;4.70;93.70;;;;;;5024751;28;20042;-78
2021/03/24 01:35:55;;;;;;;90.03;56.83;;;4.60;94.00;;;;;;5024061;28;20151;-78
2021/03/24 01:38:40;;;;;;;89.35;56.22;;;4.50;93.80;;;;;;5011039;28;20049;-78
2021/03/24 01:41:27;;;;;;;95.10;58.83;;;4.50;93.80;;;;;;5017181;28;20064;-78
2021/03/24 01:44:13;;;;;;;91.75;59.25;;;4.50;94.20;;;;;;5009714;28;20133;-78
2021/03/24 01:46:59;;;;;;;93.75;59.58;;;4.40;94.30;;;;;;5005212;28;20038;-78
2021/03/24 01:49:45;;;;;;;92.88;57.67;;;4.40;94.50;;;;;;5007484;28;20060;-78
2021/03/24 01:52:31;;;;;;;93.68;59.22;;;4.40;94.80;;;;;;5017779;28;20045;-78
2021/03/24 01:55:18;;;;;;;101.68;62.15;;;4.40;94.80;;;;;;5026479;28;20053;-78
2021/03/24 01:58:04;;;;;;;99.40;60.63;;;4.40;94.50;;;;;;5006634;28;20053;-77
2021/03/24 02:00:51;;;;;;;95.85;62.67;;;4.40;94.60;;;;;;5027182;28;20417;-77
2021/03/24 02:03:37;;;;;;;98.07;59.15;;;4.30;95.00;;;;;;5015009;28;20049;-77
2021/03/24 02:06:32;;;;;;;93.25;57.53;;;4.30;94.70;;;;;;5015929;28;20033;-77
2021/03/24 02:09:39;;;;;;;90.65;59.50;;;4.30;95.10;;;;;;5020626;28;20073;-77
2021/03/24 02:12:39;;;;;;;92.35;57.85;;;4.30;95.10;;;;;;5021928;28;20136;-77
2021/03/24 02:15:31;;;;;;;96.55;59.25;;;4.20;95.00;;;;;;5026224;28;20038;-78
2021/03/24 02:18:21;;;;;;;99.53;60.67;;;4.30;95.50;;;;;;5006514;28;20045;-78
2021/03/24 02:21:19;;;;;;;94.75;59.33;;;4.50;95.50;;;;;;5027791;28;20049;-78
2021/03/24 02:24:29;;;;;;;96.78;58.67;;;4.40;95.40;;;;;;5009634;28;20057;-78
2021/03/24 02:27:26;;;;;;;91.40;56.78;;;4.50;95.60;;;;;;5025078;28;20115;-78
2021/03/24 02:30:17;;;;;;;93.30;58.40;;;4.50;95.40;;;;;;5028008;28;20128;-77
2021/03/24 02:33:23;;;;;;;92.88;56.40;;;4.50;95.30;;;;;;5006594;28;20049;-77
2021/03/24 02:36:15;;;;;;;88.38;55.38;;;4.40;95.10;;;;;;5020365;28;20060;-77
2021/03/24 02:39:05;;;;;;;91.40;56.95;;;4.40;94.90;;;;;;5007089;28;20136;-77
2021/03/24 02:41:53;;;;;;;96.50;56.08;;;4.30;94.90;;;;;;5008666;28;20099;-77
2021/03/24 02:44:42;;;;;;;91.63;55.08;;;4.20;95.40;;;;;;5017147;28;20132;-77
2021/03/24 02:47:28;;;;;;;91.78;58.25;;;4.20;95.10;;;;;;5020762;28;20404;-77
2021/03/24 02:50:15;;;;;;;85.05;54.58;;;4.20;95.20;;;;;;5013861;28;20076;-77
2021/03/24 02:53:02;;;;;;;98.22;57.67;;;4.10;94.90;;;;;;5023630;28;20083;-77
2021/03/24 02:55:48;;;;;;;92.68;55.60;;;4.10;95.00;;;;;;5017902;28;20072;-77
2021/03/24 02:58:34;;;;;;;93.75;55.60;;;4.10;95.00;;;;;;5023953;28;20136;-77
2021/03/24 03:01:28;;;;;;;89.43;54.03;;;4.00;95.20;;;;;;5025090;28;20048;-77
2021/03/24 03:04:30;;;;;;;94.25;55.50;;;4.00;95.00;;;;;;5019515;28;20060;-77
2021/03/24 03:07:24;;;;;;;89.13;53.83;;;4.00;94.90;;;;;;5016634;28;20378;-77
2021/03/24 03:10:11;;;;;;;96.00;57.30;;;4.00;95.20;;;;;;5011384;28;20187;-77
2021/03/24 03:13:17;;;;;;;94.05;54.40;;;3.90;95.30;;;;;;5022184;28;20057;-78
2021/03/24 03:16:09;;;;;;;;;;;3.80;95.00;;;;;;5018793;28;20049;-78
2021/03/24 03:19:18;;;;;;;101.35;56.90;;;3.80;95.70;;;;;;5037369;28;20266;-78
2021/03/24 03:22:09;;;;;;;101.15;59.60;;;3.80;95.40;;;;;;5025962;28;20061;-77
2021/03/24 03:24:59;;;;;;;92.22;54.97;;;3.80;95.50;;;;;;4994527;28;20045;-77
2021/03/24 03:27:50;;;;;;;102.70;59.38;;;3.80;95.40;;;;;;5014138;28;20152;-77
2021/03/24 03:30:39;;;;;;;98.53;59.47;;;3.80;95.20;;;;;;5030309;28;20136;-77
2021/03/24 03:33:30;;;;;;;102.00;58.97;;;3.80;95.40;;;;;;5020312;28;20128;-78
2021/03/24 03:36:17;;;;;;;106.13;62.17;;;3.70;95.50;;;;;;5006292;28;20620;-77
2021/03/24 03:39:05;;;;;;;103.15;59.75;;;3.80;95.40;;;;;;5005343;28;20046;-77
2021/03/24 03:41:52;;;;;;;120.28;66.13;;;3.70;95.30;;;;;;5001798;28;20056;-77
2021/03/24 03:44:38;;;;;;;108.05;61.80;;;3.70;95.40;;;;;;5034493;28;20394;-78
2021/03/24 03:47:24;;;;;;;115.20;66.25;;;3.70;95.50;;;;;;5018628;28;20869;-78
2021/03/24 03:50:17;;;;;;;117.72;64.93;;;3.70;96.40;;;;;;5024334;28;20058;-78
2021/03/24 03:53:02;;;;;;;114.28;64.47;;;3.70;96.20;;;;;;5004796;28;20517;-78
2021/03/24 03:56:19;;;;;;;119.78;66.90;;;3.80;96.30;;;;;;5017376;28;20112;-78
2021/03/24 03:59:07;;;;;;;110.38;61.65;;;3.80;95.90;;;;;;5009687;28;20520;-78
2021/03/24 04:01:58;;;;;;;125.50;68.90;;;3.80;95.80;;;;;;5014630;28;20064;-78
2021/03/24 04:04:58;;;;;;;118.57;67.18;;;3.80;95.90;;;;;;5023917;28;20455;-78
2021/03/24 04:07:52;;;;;;;122.88;66.85;;;3.70;96.00;;;;;;5005089;28;21548;-78
2021/03/24 04:10:41;;;;;;;128.00;69.45;;;3.70;95.80;;;;;;5021631;28;20089;-78
2021/03/24 04:13:29;;;;;;;120.53;67.35;;;3.70;95.70;;;;;;5021894;28;20054;-78
2021/03/24 04:16:16;;;;;;;128.70;68.25;;;3.60;95.60;;;;;;5014160;28;20049;-78
2021/03/24 04:19:05;;;;;;;116.72;64.43;;;3.60;95.60;;;;;;5014832;28;20092;-77
2021/03/24 04:21:55;;;;;;;123.88;67.03;;;3.60;95.60;;;;;;5036848;28;20049;-77
2021/03/24 04:24:45;;;;;;;116.35;66.32;;;3.50;95.60;;;;;;5019774;28;20580;-78
2021/03/24 04:27:36;;;;;;;111.57;63.58;;;3.50;95.70;;;;;;5016026;28;20065;-77
2021/03/24 04:30:29;;;;;;;114.32;62.60;;;3.50;95.70;;;;;;5018244;28;20054;-76
2021/03/24 04:33:16;;;;;;;129.77;71.95;;;3.40;95.70;;;;;;5004045;28;20054;-76
2021/03/24 04:36:45;;;;;;;123.82;67.97;;;3.40;95.60;;;;;;5017651;28;20061;-76
2021/03/24 04:39:46;;;;;;;123.90;67.00;;;3.40;95.60;;;;;;4986384;28;20077;-76
2021/03/24 04:42:47;;;;;;;125.20;66.78;;;3.30;95.70;;;;;;4976400;28;20675;-77
2021/03/24 04:45:48;;;;;;;139.45;70.53;;;3.30;95.60;;;;;;5014008;28;20480;-78
2021/03/24 04:48:57;;;;;;;131.30;70.28;;;3.20;95.60;;;;;;5022316;28;20033;-77
2021/03/24 04:51:44;;;;;;;141.50;71.72;;;3.30;95.80;;;;;;5028391;28;20049;-78
2021/03/24 04:54:36;;;;;;;140.70;72.47;;;3.20;95.80;;;;;;5004915;28;20077;-78
2021/03/24 04:57:25;;;;;;;175.23;81.03;;;3.20;95.90;;;;;;5020837;28;20076;-78
2021/03/24 05:00:35;;;;;;;185.68;86.30;;;3.20;96.10;;;;;;5028030;28;20041;-78
2021/03/24 05:03:25;;;;;;;171.30;82.80;;;3.20;96.30;;;;;;5020575;28;20050;-78
2021/03/24 05:06:30;;;;;;;198.48;86.93;;;3.30;96.80;;;;;;5025327;28;20054;-78
2021/03/24 05:09:16;;;;;;;192.07;87.78;;;3.40;97.60;;;;;;5034111;28;20042;-78
2021/03/24 05:12:12;;;;;;;179.02;85.57;;;3.40;97.70;;;;;;5029311;28;20046;-78
2021/03/24 05:15:12;;;;;;;201.77;90.55;;;3.50;97.80;;;;;;5018069;28;20064;-78
2021/03/24 05:18:01;;;;;;;192.50;87.82;;;3.50;97.20;;;;;;5020897;28;20041;-78
2021/03/24 05:20:56;;;;;;;191.75;88.90;;;3.60;97.40;;;;;;5015626;28;20478;-78
2021/03/24 05:23:47;;;;;;;193.80;89.10;;;3.60;97.50;;;;;;5020571;28;20054;-78
2021/03/24 05:26:38;;;;;;;208.77;91.38;;;3.60;97.60;;;;;;5020926;28;20042;-78
2021/03/24 05:29:27;;;;;;;197.70;88.82;;;3.60;97.40;;;;;;5032013;28;20045;-78
2021/03/24 05:32:24;;;;;;;191.73;88.65;;;3.70;97.30;;;;;;5022320;28;20052;-78
2021/03/24 05:35:48;;;;;;;228.95;97.90;;;3.60;97.60;;;;;;5021375;28;20049;-78
2021/03/24 05:38:35;;;;;;;205.07;91.20;;;3.70;97.70;;;;;;5020529;28;20084;-78
2021/03/24 05:41:34;;;;;;;215.52;92.65;;;3.70;98.00;;;;;;5018034;28;20080;-78
2021/03/24 05:44:49;;;;;;;216.88;92.47;;;3.70;97.70;;;;;;5016440;28;20133;-78
2021/03/24 05:47:41;;;;;;;195.52;88.13;;;3.70;97.60;;;;;;5030788;28;20041;-78
2021/03/24 05:50:54;;;;;;;200.07;88.70;;;3.70;97.60;;;;;;5014249;28;20095;-78
2021/03/24 05:53:45;;;;;;;202.93;90.72;;;3.70;97.50;;;;;;5028094;28;20057;-78
2021/03/24 05:56:40;;;;;;;234.98;97.63;;;3.70;97.80;;;;;;5034404;28;20110;-78
2021/03/24 06:00:01;;;;;;;197.25;89.35;;;3.70;97.50;;;;;;5021040;28;20111;-78
2021/03/24 06:03:06;;;;;;;219.65;91.88;;;3.70;97.50;;;;;;5009539;28;20049;-78
2021/03/24 06:06:30;;;;;;;199.13;90.45;;;3.70;97.70;;;;;;5014674;28;20481;-78
2021/03/24 06:09:34;;;;;;;192.05;87.82;;;3.80;97.80;;;;;;5007439;28;20470;-78
2021/03/24 06:12:50;;;;;;;189.57;87.45;;;3.80;97.70;;;;;;5016028;28;20103;-78
2021/03/24 06:16:24;;;;;;;190.50;88.32;;;3.80;98.10;;;;;;5030915;28;20558;-78
2021/03/24 06:19:12;;;;;;;186.02;85.57;;;3.90;98.20;;;;;;5015156;28;20066;-78
2021/03/24 06:22:29;;;;;;;200.05;87.38;;;4.00;98.00;;;;;;5019469;28;20050;-78
2021/03/24 06:25:46;;;;;;;183.57;82.88;;;4.00;98.10;;;;;;5004826;28;20450;-79
2021/03/24 06:28:49;;;;;;;196.32;90.57;;;4.10;98.30;;;;;;5007016;28;20057;-79
2021/03/24 06:31:54;;;;;;;178.13;87.57;;;4.30;98.20;;;;;;5013643;28;20140;-78
2021/03/24 06:35:17;;;;;;;189.60;88.68;;;4.30;98.10;;;;;;4998219;28;20056;-78
2021/03/24 06:38:18;;;;;;;176.50;84.43;;;4.40;98.30;;;;;;5008778;28;20120;-77
2021/03/24 06:41:43;;;;;;;182.00;86.32;;;4.60;98.30;;;;;;4999474;28;20461;-78
2021/03/24 06:44:37;;;;;;;169.05;85.00;;;4.70;98.40;;;;;;5005856;28;20049;-77
2021/03/24 06:47:35;;;;;;;163.38;81.57;;;4.80;98.40;;;;;;5029140;28;20055;-77
2021/03/24 06:50:59;;;;;;;150.77;83.13;;;4.90;98.30;;;;;;5016055;28;20072;-78
2021/03/24 06:54:07;;;;;;;149.50;81.25;;;5.10;98.20;;;;;;5015113;28;20053;-76
2021/03/24 06:57:23;;;;;;;150.93;81.47;;;5.20;97.90;;;;;;5016304;28;20092;-77
2021/03/24 07:00:27;;;;;;;133.75;77.43;;;5.40;97.90;;;;;;5012015;28;20046;-78
2021/03/24 07:03:37;;;;;;;124.95;75.50;;;5.50;97.60;;;;;;5014799;28;20064;-77
2021/03/24 07:06:45;;;;;;;128.25;75.18;;;5.60;97.40;;;;;;5036997;28;20474;-77
2021/03/24 07:09:52;;;;;;;132.52;75.70;;;5.80;97.10;;;;;;5017562;28;20656;-76
2021/03/24 07:12:53;;;;;;;118.82;70.55;;;5.90;97.00;;;;;;5017893;28;20069;-77
2021/03/24 07:15:49;;;;;;;125.00;76.22;;;6.00;96.80;;;;;;5030178;28;20049;-77
2021/03/24 07:18:44;;;;;;;113.20;71.30;;;6.10;96.80;;;;;;5019258;28;20088;-77
2021/03/24 07:22:01;;;;;;;119.72;74.88;;;6.30;96.40;;;;;;5018710;28;20124;-77
2021/03/24 07:24:49;;;;;;;122.53;79.30;;;6.50;96.40;;;;;;5026296;28;20516;-78
2021/03/24 07:28:07;;;;;;;113.30;72.53;;;6.70;96.20;;;;;;5014429;28;20057;-78
2021/03/24 07:31:01;;;;;;;107.40;71.60;;;6.90;96.00;;;;;;5006998;28;20053;-77
2021/03/24 07:33:56;;;;;;;101.85;68.53;;;7.10;95.50;;;;;;5016809;28;20188;-77
2021/03/24 07:37:04;;;;;;;;;;;7.40;95.10;;;;;;5024490;28;20418;-77
2021/03/24 07:40:23;;;;;;;100.20;68.22;;;7.60;94.70;;;;;;5014898;28;19935;-77
2021/03/24 07:43:22;;;;;;;98.63;63.70;;;7.70;94.30;;;;;;5023839;28;20049;-77
2021/03/24 07:46:20;;;;;;;96.55;64.70;;;7.90;94.30;;;;;;5018154;28;20092;-78
2021/03/24 07:49:27;;;;;;;94.45;65.43;;;8.20;93.90;;;;;;5023439;28;20061;-78
2021/03/24 07:52:35;;;;;;;89.65;63.28;;;8.40;93.40;;;;;;5016692;28;20041;-78
2021/03/24 07:55:49;;;;;;;91.65;64.55;;;8.60;92.70;;;;;;4999720;28;20041;-78
2021/03/24 07:59:14;;;;;;;86.65;61.58;;;8.80;92.00;;;;;;5015459;28;20041;-78
2021/03/24 08:02:18;;;;;;;86.10;61.75;;;9.00;92.10;;;;;;5015150;28;20483;-77
2021/03/24 08:05:29;;;;;;;95.88;64.78;;;9.30;92.10;;;;;;5025971;28;20104;-77
2021/03/24 08:08:25;;;;;;;77.65;55.80;;;9.60;90.60;;;;;;5012487;28;20038;-77
2021/03/24 08:11:29;;;;;;;79.28;56.50;;;9.80;90.20;;;;;;5020469;28;20045;-77
2021/03/24 08:14:52;;;;;;;74.55;53.58;;;9.90;89.50;;;;;;5013041;28;20069;-77
2021/03/24 08:17:55;;;;;;;78.28;56.58;;;10.10;85.70;;;;;;5014504;28;20046;-76
2021/03/24 08:20:39;;;;;;;74.47;52.92;;;10.30;88.30;;;;;;5024527;28;20048;-76
2021/03/24 08:23:19;;;;;;;73.95;53.97;;;10.40;85.10;;;;;;5023889;28;20123;-76
2021/03/24 08:26:17;;;;;;;72.90;54.45;;;10.50;84.70;;;;;;5044155;28;20048;-76
2021/03/24 08:28:54;;;;;;;73.95;53.20;;;10.70;85.10;;;;;;5026608;28;20037;-76
2021/03/24 08:31:38;;;;;;;70.90;54.65;;;10.80;85.20;;;;;;5021088;28;20046;-76
2021/03/24 08:34:20;;;;;;;71.35;51.53;;;11.00;83.20;;;;;;5020036;28;20033;-76
2021/03/24 08:36:58;;;;;;;73.13;51.50;;;11.20;82.80;;;;;;5021315;28;20703;-77
2021/03/24 08:39:34;;;;;;;64.75;48.05;;;11.40;83.00;;;;;;5024118;28;20033;-77
2021/03/24 08:42:34;;;;;;;63.30;48.60;;;11.40;81.60;;;;;;5012523;28;20072;-77
2021/03/24 08:45:18;;;;;;;64.68;48.67;;;11.50;79.80;;;;;;5018593;28;20049;-76
2021/03/24 08:47:48;;;;;;;63.92;47.75;;;11.70;79.80;;;;;;5024974;28;20038;-78
2021/03/24 08:50:19;;;;;;;63.15;46.13;;;11.70;80.00;;;;;;5023910;28;20046;-76
2021/03/24 08:52:52;;;;;;;61.15;45.35;;;11.80;78.20;;;;;;5024368;28;20119;-76
2021/03/24 08:55:46;;;;;;;59.67;43.38;;;11.70;77.70;;;;;;5029347;28;20099;-76
2021/03/24 08:58:17;;;;;;;55.88;44.05;;;11.80;77.90;;;;;;5014106;28;20477;-76
2021/03/24 09:00:46;;;;;;;57.70;44.38;;;11.90;77.70;;;;;;5020877;28;20072;-76
2021/03/24 09:03:30;;;;;;;58.72;45.03;;;12.00;78.00;;;;;;5017649;28;20049;-77
2021/03/24 09:06:02;;;;;;;59.67;43.60;;;12.10;76.90;;;;;;5042240;28;20077;-77
2021/03/24 09:08:31;;;;;;;59.05;44.38;;;12.10;76.30;;;;;;5036517;28;20053;-77
2021/03/24 09:11:18;;;;;;;58.35;42.97;;;12.20;76.60;;;;;;5027003;28;20470;-77
2021/03/24 09:14:25;;;;;;;53.20;39.05;;;12.30;74.80;;;;;;5036334;28;20053;-78
2021/03/24 09:17:09;;;;;;;48.83;36.03;;;12.40;73.10;;;;;;5002131;28;20469;-78
2021/03/24 09:20:09;;;;;;;44.42;32.72;;;12.50;75.10;;;;;;5018706;28;20064;-78
2021/03/24 09:23:13;;;;;;;54.55;38.63;;;12.60;71.50;;;;;;5044048;28;20045;-79
2021/03/24 09:25:41;;;;;;;43.10;33.25;;;12.70;72.10;;;;;;5022379;28;20481;-78
2021/03/24 09:28:42;;;;;;;43.80;34.70;;;12.80;72.80;;;;;;5024049;28;20049;-78
2021/03/24 09:31:23;;;;;;;44.22;30.98;;;12.80;71.30;;;;;;5008975;28;20060;-77
2021/03/24 09:33:59;;;;;;;42.30;32.10;;;12.80;69.30;;;;;;5023070;28;20041;-79
2021/03/24 09:36:56;;;;;;;42.92;33.60;;;12.70;69.20;;;;;;5040280;28;20163;-79
2021/03/24 09:39:31;;;;;;;44.08;34.22;;;12.80;69.00;;;;;;5038985;28;20057;-76
2021/03/24 09:42:14;;;;;;;46.38;35.45;;;12.80;71.30;;;;;;5023631;28;20044;-77
2021/03/24 09:44:56;;;;;;;46.20;35.35;;;12.90;70.00;;;;;;5019191;28;20124;-78
2021/03/24 09:47:30;;;;;;;50.25;37.05;;;13.00;71.60;;;;;;5024788;28;20042;-78
2021/03/24 09:50:20;;;;;;;48.35;35.95;;;13.00;70.20;;;;;;5017970;28;20053;-78
2021/03/24 09:53:04;;;;;;;43.97;33.90;;;13.10;71.20;;;;;;5040102;28;20046;-78
2021/03/24 09:55:38;;;;;;;46.03;32.67;;;13.00;68.40;;;;;;5018877;28;20041;-78
2021/03/24 09:58:22;;;;;;;40.95;31.05;;;13.00;71.40;;;;;;5023196;28;20059;-78
2021/03/24 10:00:57;;;;;;;37.88;28.70;;;13.10;68.50;;;;;;5022490;28;20041;-79
2021/03/24 10:04:01;;;;;;;44.13;32.75;;;13.20;68.40;;;;;;5027454;28;20140;-78
2021/03/24 10:06:49;;;;;;;39.67;30.08;;;13.30;68.80;;;;;;5018081;28;20127;-78
2021/03/24 10:09:40;;;;;;;42.80;32.63;;;13.40;66.80;;;;;;5042300;28;20041;-78
2021/03/24 10:12:06;;;;;;;37.88;29.23;;;13.30;67.50;;;;;;5020232;28;20081;-78
2021/03/24 10:14:48;;;;;;;38.78;29.90;;;13.30;67.90;;;;;;5026727;28;20515;-78
2021/03/24 10:17:39;;;;;;;42.42;30.80;;;13.30;68.10;;;;;;5011463;28;20432;-78
2021/03/24 10:20:21;;;;;;;40.67;31.00;;;13.30;65.80;;;;;;5020829;28;20099;-78
2021/03/24 10:23:04;;;;;;;41.03;30.75;;;13.20;68.20;;;;;;5021745;28;20378;-78
2021/03/24 10:25:36;;;;;;;39.58;30.38;;;13.30;68.90;;;;;;5021081;28;20049;-78
2021/03/24 10:28:32;;;;;;;41.00;30.73;;;13.40;67.70;;;;;;5032186;28;20133;-77
2021/03/24 10:31:06;;;;;;;37.90;30.67;;;13.30;67.30;;;;;;5023127;28;20030;-77
2021/03/24 10:33:37;;;;;;;40.63;30.17;;;13.40;68.60;;;;;;5035628;28;20126;-77
2021/03/24 10:36:28;;;;;;;41.15;30.17;;;13.50;66.60;;;;;;5020159;28;20053;-77
2021/03/24 10:39:27;;;;;;;37.83;27.13;;;13.50;67.30;;;;;;5024599;28;20374;-77
2021/03/24 10:41:59;;;;;;;35.78;26.38;;;13.50;65.20;;;;;;5022219;28;20628;-78
2021/03/24 10:44:37;;;;;;;39.80;29.52;;;13.50;66.30;;;;;;5028313;28;20050;-78
2021/03/24 10:47:14;;;;;;;40.03;29.23;;;13.50;67.40;;;;;;5035001;28;20068;-77
2021/03/24 10:50:04;;;;;;;35.95;28.35;;;13.60;65.80;;;;;;5028910;28;20041;-78
2021/03/24 10:52:42;;;;;;;37.58;29.88;;;13.70;64.50;;;;;;5021630;28;20424;-77
2021/03/24 10:55:18;;;;;;;34.85;28.77;;;13.80;66.00;;;;;;5024473;28;20072;-78
2021/03/24 10:58:40;;;;;;;36.08;28.73;;;13.80;65.80;;;;;;5022115;28;20480;-78
2021/03/24 11:01:47;;;;;;;39.78;30.55;;;13.80;63.90;;;;;;5009998;28;20076;-78
2021/03/24 11:04:31;;;;;;;33.30;27.05;;;13.90;64.70;;;;;;5006430;28;20136;-79
2021/03/24 11:07:10;;;;;;;36.25;29.10;;;13.80;65.60;;;;;;5014085;28;20050;-77
2021/03/24 11:09:59;;;;;;;36.58;28.75;;;13.90;64.40;;;;;;5021637;28;20044;-78
2021/03/24 11:12:54;;;;;;;31.83;26.05;;;13.90;65.00;;;;;;5023769;28;20091;-78
2021/03/24 11:15:25;;;;;;;38.65;27.67;;;13.90;63.80;;;;;;5038035;28;20054;-79
2021/03/24 11:18:02;;;;;;;35.95;27.33;;;14.00;64.40;;;;;;5026217;28;20042;-77
2021/03/24 11:20:55;;;;;;;33.65;26.52;;;14.00;65.00;;;;;;5019383;28;20029;-77
2021/03/24 11:23:44;;;;;;;34.47;25.85;;;14.00;63.80;;;;;;5011475;28;20308;-79
2021/03/24 11:26:16;;;;;;;34.47;26.38;;;14.00;63.40;;;;;;5028646;28;20096;-81
2021/03/24 11:28:46;;;;;;;36.92;27.90;;;14.00;63.30;;;;;;5038656;28;20478;-81
2021/03/24 11:31:34;;;;;;;39.88;28.10;;;13.90;63.80;;;;;;5030685;28;20045;-82
2021/03/24 11:34:14;;;;;;;34.47;25.45;;;13.90;63.80;;;;;;5018942;28;20040;-82
2021/03/24 11:36:45;;;;;;;40.10;27.90;;;13.90;64.30;;;;;;5026866;28;20072;-84
2021/03/24 11:39:35;;;;;;;34.43;25.60;;;13.90;64.20;;;;;;5020206;28;20045;-82
2021/03/24 11:42:19;;;;;;;34.58;27.38;;;13.90;64.20;;;;;;5020305;28;20678;-81
2021/03/24 11:44:51;;;;;;;37.47;28.15;;;13.90;64.20;;;;;;4989346;28;20095;-81
2021/03/24 11:47:27;;;;;;;39.85;28.48;;;13.90;63.70;;;;;;5031686;28;20524;-84
2021/03/24 11:50:24;;;;;;;38.67;29.60;;;14.00;64.90;;;;;;5020734;28;20049;-82
2021/03/24 11:53:34;;;;;;;37.55;29.05;;;14.00;65.10;;;;;;5022064;28;20042;-81
2021/03/24 11:56:15;;;;;;;34.28;25.73;;;14.10;64.70;;;;;;5012602;28;20061;-82
2021/03/24 11:59:01;;;;;;;35.85;26.50;;;14.20;64.60;;;;;;5034196;28;20044;-82
2021/03/24 12:02:04;;;;;;;34.88;26.08;;;14.30;63.20;;;;;;5039513;28;20050;-82
2021/03/24 12:04:52;;;;;;;34.42;26.08;;;14.30;63.60;;;;;;5027373;28;20053;-81
2021/03/24 12:08:03;;;;;;;34.17;26.33;;;14.30;62.70;;;;;;5023403;28;20046;-82
2021/03/24 12:10:38;;;;;;;37.28;26.25;;;14.30;62.70;;;;;;4974359;28;20062;-81
2021/03/24 12:13:31;;;;;;;34.97;25.17;;;14.30;62.70;;;;;;5027259;28;20065;-82
2021/03/24 12:16:12;;;;;;;34.33;25.67;;;14.30;61.50;;;;;;5030290;28;20749;-84
2021/03/24 12:18:46;;;;;;;37.97;27.70;;;14.40;63.70;;;;;;5032352;28;20112;-83
2021/03/24 12:21:28;;;;;;;33.47;25.42;;;14.40;63.50;;;;;;5028451;28;20033;-82
2021/03/24 12:23:58;;;;;;;38.85;26.80;;;14.50;61.70;;;;;;5026872;28;20046;-83
2021/03/24 12:26:39;;;;;;;38.70;28.15;;;14.50;60.50;;;;;;5024887;28;20070;-82
2021/03/24 12:29:30;;;;;;;36.08;27.50;;;14.40;61.50;;;;;;5035448;28;20041;-85
2021/03/24 12:32:17;;;;;;;36.92;28.42;;;14.40;60.20;;;;;;5040406;28;20060;-80
2021/03/24 12:34:48;;;;;;;41.22;28.27;;;14.30;62.30;;;;;;5028937;28;20060;-82
2021/03/24 12:37:55;;;;;;;35.33;27.65;;;14.30;62.80;;;;;;5028577;28;20044;-81
2021/03/24 12:40:24;;;;;;;37.50;28.60;;;14.30;62.30;;;;;;5014288;28;20105;-79
2021/03/24 12:42:52;;;;;;;36.88;29.05;;;14.30;62.90;;;;;;5020960;28;20050;-80
2021/03/24 12:45:32;;;;;;;36.50;27.95;;;14.30;63.00;;;;;;5040300;28;20090;-81
2021/03/24 12:48:05;;;;;;;37.88;28.98;;;14.40;63.40;;;;;;5025390;28;20107;-81
2021/03/24 12:51:00;;;;;;;37.45;28.00;;;14.50;62.50;;;;;;5029325;28;20045;-79
2021/03/24 12:54:01;;;;;;;38.53;28.52;;;14.60;62.90;;;;;;5028379;28;20116;-83
2021/03/24 12:56:58;;;;;;;40.95;29.75;;;14.70;60.70;;;;;;5024302;28;20042;-82
2021/03/24 13:00:09;;;;;;;38.50;26.48;;;14.60;61.50;;;;;;5032903;28;20041;-80
2021/03/24 13:03:50;;;;;;;37.83;27.88;;;14.70;59.80;;;;;;5024164;28;20068;-82
2021/03/24 13:06:55;;;;;;;41.25;28.88;;;14.70;59.80;;;;;;5000501;28;20161;-81
2021/03/24 13:09:39;;;;;;;40.03;28.17;;;14.70;59.30;;;;;;4974005;28;20529;-82
2021/03/24 13:12:56;;;;;;;37.87;29.50;;;14.60;60.90;;;;;;4999618;28;20108;-83
2021/03/24 13:15:43;;;;;;;42.30;29.35;;;14.60;59.80;;;;;;4938252;28;20798;-81
2021/03/24 13:18:35;;;;;;;38.75;27.50;;;14.60;60.70;;;;;;5022418;28;20053;-80
2021/03/24 13:21:03;;;;;;;42.65;29.30;;;14.60;59.60;;;;;;5029429;28;20060;-81
2021/03/24 13:23:51;;;;;;;37.38;29.70;;;14.60;61.30;;;;;;5028057;28;20376;-83
2021/03/24 13:26:28;;;;;;;38.97;29.00;;;14.60;60.60;;;;;;5047178;28;20075;-82
2021/03/24 13:32:29;;;;;;;39.40;29.77;;;14.70;59.80;;;;;;5029004;28;20049;-84
2021/03/24 13:35:15;;;;;;;41.92;30.02;;;14.60;59.90;;;;;;5027090;28;20045;-84
2021/03/24 13:37:59;;;;;;;41.33;29.70;;;14.60;59.90;;;;;;5035627;28;20049;-81
2021/03/24 13:40:33;;;;;;;38.95;31.02;;;14.50;60.90;;;;;;5016168;28;20046;-81
2021/03/24 13:43:25;;;;;;;37.78;28.17;;;14.40;60.60;;;;;;5031333;28;20049;-80
2021/03/24 13:46:08;;;;;;;41.55;30.17;;;14.30;59.80;;;;;;5017389;28;20046;-82
2021/03/24 13:48:43;;;;;;;40.40;29.05;;;14.10;61.10;;;;;;5028479;28;20049;-83
2021/03/24 13:51:23;;;;;;;;;;;14.20;61.60;;;;;;5030321;28;20622;-82
2021/03/24 13:54:07;;;;;;;40.03;29.25;;;14.30;59.90;;;;;;5023461;28;19925;-81
2021/03/24 13:57:15;;;;;;;40.13;31.35;;;14.40;61.10;;;;;;5024226;28;20482;-82
2021/03/24 14:00:41;;;;;;;38.35;30.20;;;14.40;60.80;;;;;;5023450;28;20068;-83
2021/03/24 14:03:43;;;;;;;42.70;29.90;;;14.50;61.70;;;;;;5044956;28;20131;-82
2021/03/24 14:06:50;;;;;;;38.10;29.25;;;14.50;61.90;;;;;;4971460;28;20093;-81
2021/03/24 14:10:04;;;;;;;41.65;31.50;;;14.50;61.30;;;;;;4990171;28;20506;-83
2021/03/24 14:12:55;;;;;;;42.20;29.92;;;14.60;61.60;;;;;;4971394;28;20483;-81
2021/03/24 14:15:49;;;;;;;42.60;31.42;;;14.50;62.70;;;;;;4965107;28;20034;-82
2021/03/24 14:18:52;;;;;;;42.13;31.33;;;14.40;62.30;;;;;;5022640;28;20402;-86
2021/03/24 14:21:45;;;;;;;40.67;31.10;;;14.20;63.40;;;;;;5037510;28;20057;-83
2021/03/24 14:24:41;;;;;;;41.67;31.48;;;14.00;64.60;;;;;;5046515;28;20428;-82
2021/03/24 14:27:43;;;;;;;40.80;31.58;;;14.00;64.00;;;;;;5002406;28;20421;-81
2021/03/24 14:30:25;;;;;;;39.15;30.55;;;13.90;64.60;;;;;;5041121;28;20049;-83
2021/03/24 14:32:55;;;;;;;45.55;32.97;;;13.80;65.80;;;;;;5029082;28;20064;-80
2021/03/24 14:35:34;;;;;;;43.28;32.67;;;13.90;66.30;;;;;;5030188;28;20230;-82
2021/03/24 14:38:24;;;;;;;45.00;33.28;;;14.00;66.40;;;;;;5027843;28;20057;-82